Time;durP1;ratioP1;P1;durP2;ratioP2;P2;SDS_P1;SDS_P2;PMS_P1;PMS_P2;Temp;Humidity;BMP_temperature;BMP_pressure;BME280_temperature;BME280_humidity;BME280_pressure;Samples;Min_cycle;Max_cycle;Signal;HPM_P1;HPM_P2
2022/12/16 00:01:43;;;;;;;130.48;89.88;;;;;;;-4.31;100.00;100901.00;5115324;28;20051;-48
2022/12/16 00:04:09;;;;;;;125.63;85.15;;;;;;;-4.21;100.00;100899.28;5115000;28;20055;-48
2022/12/16 00:06:34;;;;;;;91.85;36.92;;;;;;;-4.18;100.00;100907.16;5115696;28;20028;-48
2022/12/16 00:09:00;;;;;;;126.53;88.03;;;;;;;-4.16;100.00;100898.97;5115774;28;20035;-47
2022/12/16 00:11:26;;;;;;;97.63;35.20;;;;;;;-4.08;100.00;100903.78;5115086;28;20063;-47
2022/12/16 00:13:51;;;;;;;126.97;84.38;;;;;;;-4.07;100.00;100903.06;5115377;28;20024;-49
2022/12/16 00:16:19;;;;;;;130.18;87.25;;;;;;;-4.05;100.00;100899.91;5115540;28;20367;-47
2022/12/16 00:18:45;;;;;;;85.32;34.95;;;;;;;-3.97;100.00;100898.97;5114508;28;20564;-48
2022/12/16 00:21:10;;;;;;;120.88;84.07;;;;;;;-3.92;100.00;100903.53;5115113;28;20024;-48
2022/12/16 00:23:38;;;;;;;135.20;86.75;;;;;;;-3.82;100.00;100896.03;5115336;28;20379;-49
2022/12/16 00:26:03;;;;;;;131.38;87.85;;;;;;;-3.80;100.00;100897.03;5114786;28;20048;-50
2022/12/16 00:28:29;;;;;;;127.72;86.88;;;;;;;-3.74;100.00;100892.56;5115543;28;20027;-49
2022/12/16 00:30:55;;;;;;;90.82;36.58;;;;;;;-3.68;100.00;100898.13;5114990;28;20051;-49
2022/12/16 00:33:22;;;;;;;104.90;40.42;;;;;;;-3.64;100.00;100887.56;5114365;28;20035;-48
2022/12/16 00:35:48;;;;;;;;;;;;;;;-3.58;100.00;100898.91;5115601;28;20019;-46
2022/12/16 00:38:14;;;;;;;145.45;92.85;;;;;;;-3.59;100.00;100898.06;5115351;28;19922;-48
2022/12/16 00:40:40;;;;;;;135.10;90.85;;;;;;;-3.60;100.00;100900.41;5114147;28;20023;-47
2022/12/16 00:43:05;;;;;;;103.05;38.17;;;;;;;-3.49;100.00;100900.59;5115495;28;20059;-49
2022/12/16 00:45:30;;;;;;;95.93;39.08;;;;;;;-3.44;100.00;100903.50;5114933;28;20028;-45
2022/12/16 00:47:56;;;;;;;134.35;84.97;;;;;;;-3.43;100.00;100899.34;5114243;28;20110;-49
2022/12/16 00:50:22;;;;;;;121.88;83.82;;;;;;;-3.45;100.00;100896.69;5115128;28;20030;-49
2022/12/16 00:52:48;;;;;;;131.45;88.80;;;;;;;-3.42;100.00;100901.13;5114494;28;20467;-47
2022/12/16 00:55:14;;;;;;;136.20;88.35;;;;;;;-3.39;100.00;100899.75;5114505;28;20024;-49
2022/12/16 00:57:39;;;;;;;142.15;95.03;;;;;;;-3.41;100.00;100897.84;5114597;28;20096;-47
2022/12/16 01:00:06;;;;;;;144.02;94.55;;;;;;;-3.37;100.00;100905.81;5114313;28;20364;-49
2022/12/16 01:02:31;;;;;;;138.45;90.57;;;;;;;-3.41;100.00;100911.31;5113822;28;20020;-45
2022/12/16 01:04:57;;;;;;;95.20;36.65;;;;;;;-3.28;100.00;100899.78;5114568;28;20085;-48
2022/12/16 01:07:22;;;;;;;138.45;92.80;;;;;;;-3.40;100.00;100900.50;5114086;28;20019;-48
2022/12/16 01:09:47;;;;;;;136.60;92.10;;;;;;;-3.36;100.00;100897.47;5114352;28;20023;-48
2022/12/16 01:12:13;;;;;;;141.15;94.78;;;;;;;-3.38;100.00;100909.09;5114702;28;20034;-49
2022/12/16 01:14:38;;;;;;;99.65;39.38;;;;;;;-3.26;100.00;100914.28;5114065;28;20058;-48
2022/12/16 01:17:03;;;;;;;129.85;88.28;;;;;;;-3.29;100.00;100913.16;5114367;28;20374;-49
2022/12/16 01:19:29;;;;;;;148.40;95.32;;;;;;;-3.33;100.00;100922.97;5114455;28;20016;-44
2022/12/16 01:21:54;;;;;;;147.18;97.70;;;;;;;-3.35;100.00;100921.94;5113464;28;20034;-47
2022/12/16 01:24:19;;;;;;;140.20;91.30;;;;;;;-3.35;100.00;100919.41;5114324;28;20028;-44
2022/12/16 01:26:44;;;;;;;137.95;90.72;;;;;;;-3.35;100.00;100924.47;5113970;28;20062;-48
2022/12/16 01:29:10;;;;;;;99.80;37.63;;;;;;;-3.23;100.00;100931.31;5113472;28;20030;-45
2022/12/16 01:31:35;;;;;;;135.77;88.47;;;;;;;-3.31;100.00;100926.50;5113584;28;20031;-47
2022/12/16 01:34:00;;;;;;;133.25;89.32;;;;;;;-3.29;100.00;100933.31;5114076;28;20027;-48
2022/12/16 01:36:26;;;;;;;144.85;95.38;;;;;;;-3.29;100.00;100939.25;5113498;28;20030;-47
2022/12/16 01:38:51;;;;;;;141.52;94.93;;;;;;;-3.33;100.00;100948.19;5113671;28;20031;-49
2022/12/16 01:41:17;;;;;;;145.15;94.78;;;;;;;-3.25;100.00;100943.78;5114126;28;20027;-49
2022/12/16 01:43:44;;;;;;;152.40;97.95;;;;;;;-3.30;100.00;100952.59;5112920;28;20020;-49
2022/12/16 01:46:09;;;;;;;143.48;94.47;;;;;;;-3.27;100.00;100944.41;5113980;28;20019;-48
2022/12/16 01:48:42;;;;;;;138.57;90.40;;;;;;;-3.24;100.00;100944.66;5113532;28;20103;-47
2022/12/16 01:51:17;;;;;;;146.15;93.50;;;;;;;-3.18;100.00;100962.84;5113450;28;20019;-49
2022/12/16 01:53:45;;;;;;;146.80;95.50;;;;;;;-3.22;100.00;100965.88;5113376;28;20463;-48
2022/12/16 01:56:14;;;;;;;149.73;94.50;;;;;;;-3.19;100.00;100961.06;5113521;28;20490;-48
2022/12/16 01:58:41;;;;;;;112.00;41.90;;;;;;;-3.07;100.00;100958.72;5112783;28;20051;-47
2022/12/16 02:01:07;;;;;;;97.35;39.45;;;;;;;-3.06;100.00;100960.50;5113563;28;20089;-48
2022/12/16 02:03:35;;;;;;;140.82;91.78;;;;;;;-3.15;100.00;100964.00;5112669;28;20035;-49
2022/12/16 02:06:02;;;;;;;141.23;89.93;;;;;;;-3.16;100.00;100966.41;5113868;28;20050;-45
2022/12/16 02:08:28;;;;;;;99.47;38.83;;;;;;;-3.06;100.00;100971.47;5113657;28;20028;-49
2022/12/16 02:11:13;;;;;;;144.02;92.93;;;;;;;-3.13;100.00;100979.25;5112515;28;20432;-48
2022/12/16 02:14:05;;;;;;;153.90;93.97;;;;;;;-3.10;100.00;100982.03;5113411;28;20027;-48
2022/12/16 02:16:53;;;;;;;115.03;41.25;;;;;;;-3.03;100.00;100979.28;5113233;28;20034;-47
2022/12/16 02:19:31;;;;;;;149.57;99.57;;;;;;;-3.11;100.00;100975.25;5112905;28;20024;-48
2022/12/16 02:22:20;;;;;;;157.32;101.28;;;;;;;-3.12;100.00;100985.16;5113426;28;20031;-49
2022/12/16 02:25:18;;;;;;;104.03;40.90;;;;;;;-2.99;100.00;100983.84;5112233;28;20123;-50
2022/12/16 02:28:02;;;;;;;155.32;101.28;;;;;;;-3.06;100.00;100985.72;5112859;28;20035;-44
2022/12/16 02:30:44;;;;;;;154.05;98.85;;;;;;;-3.07;100.00;100987.34;5113495;28;20038;-45
2022/12/16 02:33:37;;;;;;;159.27;100.65;;;;;;;-3.06;100.00;100981.56;5112849;28;20027;-48
2022/12/16 02:36:13;;;;;;;162.65;104.43;;;;;;;-3.07;100.00;100992.41;5113223;28;20111;-48
2022/12/16 02:38:58;;;;;;;160.38;101.88;;;;;;;-3.01;100.00;100992.03;5112859;28;20023;-48
2022/12/16 02:41:31;;;;;;;161.25;101.15;;;;;;;-3.07;100.00;100992.41;5113336;28;20019;-49
2022/12/16 02:44:08;;;;;;;153.35;99.07;;;;;;;-3.08;100.00;101000.72;5116256;28;20031;-47
2022/12/16 02:46:39;;;;;;;149.50;95.57;;;;;;;-3.11;100.00;100990.38;5116373;28;20031;-49
2022/12/16 02:49:27;;;;;;;150.65;96.18;;;;;;;-3.07;100.00;100994.91;5117603;28;20032;-49
2022/12/16 02:51:54;;;;;;;158.18;96.00;;;;;;;-3.14;100.00;101000.16;5116572;28;20054;-43
2022/12/16 02:54:20;;;;;;;109.20;42.03;;;;;;;-3.01;100.00;101009.69;5116774;28;20016;-48
2022/12/16 02:56:52;;;;;;;155.60;100.25;;;;;;;-3.06;100.00;101001.75;5116962;28;20107;-48
2022/12/16 02:59:22;;;;;;;162.15;99.43;;;;;;;-3.10;100.00;101002.19;5117205;28;20035;-47
2022/12/16 03:01:56;;;;;;;160.00;97.60;;;;;;;-3.07;100.00;101002.47;5116209;28;20048;-47
2022/12/16 03:04:35;;;;;;;159.80;99.47;;;;;;;-3.07;100.00;100999.97;5117223;28;20110;-44
2022/12/16 03:07:05;;;;;;;162.05;102.57;;;;;;;-3.04;100.00;101002.72;5116332;28;20023;-44
2022/12/16 03:09:34;;;;;;;115.97;40.88;;;;;;;-2.92;100.00;100999.50;5116829;28;20024;-46
2022/12/16 03:12:04;;;;;;;157.48;98.78;;;;;;;-3.04;100.00;101002.72;5117112;28;20044;-48
2022/12/16 03:14:33;;;;;;;117.78;43.92;;;;;;;-2.89;100.00;101002.28;5116256;28;20027;-44
2022/12/16 03:16:59;;;;;;;164.40;101.28;;;;;;;-3.02;100.00;101000.34;5116905;28;20039;-45
2022/12/16 03:19:26;;;;;;;160.90;100.90;;;;;;;-3.06;100.00;101008.41;5116942;28;20024;-46
2022/12/16 03:22:19;;;;;;;160.20;98.47;;;;;;;-3.02;100.00;101015.47;5115586;28;20031;-45
2022/12/16 03:24:44;;;;;;;157.63;100.70;;;;;;;-3.06;100.00;101004.25;5116313;28;20123;-45
2022/12/16 03:27:19;;;;;;;165.40;101.03;;;;;;;-3.07;100.00;101007.53;5116592;28;20111;-44
2022/12/16 03:30:06;;;;;;;171.73;103.03;;;;;;;-3.08;100.00;101009.91;5115687;28;20474;-42
2022/12/16 03:32:42;;;;;;;158.88;100.35;;;;;;;-3.07;100.00;101012.56;5116508;28;20039;-45
2022/12/16 03:35:19;;;;;;;158.98;99.63;;;;;;;-3.08;100.00;101009.91;5115952;28;20023;-43
2022/12/16 03:37:46;;;;;;;169.73;105.47;;;;;;;-3.12;100.00;101007.84;5116199;28;20032;-44
2022/12/16 03:40:13;;;;;;;177.30;106.13;;;;;;;-3.11;100.00;101018.09;5116592;28;20028;-44
2022/12/16 03:42:41;;;;;;;164.35;102.25;;;;;;;-3.10;100.00;101017.31;5115225;28;20027;-44
2022/12/16 03:45:10;;;;;;;165.65;106.68;;;;;;;-3.04;100.00;101027.09;5116156;28;20374;-44
2022/12/16 03:47:36;;;;;;;161.73;102.25;;;;;;;-3.01;100.00;101030.75;5115966;28;20031;-43
2022/12/16 03:50:02;;;;;;;166.30;103.95;;;;;;;-3.03;100.00;101028.84;5115596;28;20019;-44
2022/12/16 03:52:27;;;;;;;116.50;43.42;;;;;;;-2.91;100.00;101034.94;5116185;28;20032;-44
2022/12/16 03:54:52;;;;;;;169.10;102.53;;;;;;;-3.00;100.00;101029.09;5115479;28;20030;-44
2022/12/16 03:57:18;;;;;;;165.93;105.40;;;;;;;-2.95;100.00;101039.59;5098429;28;20540;-43
2022/12/16 03:59:43;;;;;;;170.07;107.85;;;;;;;-2.97;100.00;101041.97;5095438;28;20035;-43
2022/12/16 04:02:09;;;;;;;120.30;45.67;;;;;;;-2.83;100.00;101048.22;5095204;28;20075;-44
2022/12/16 04:04:34;;;;;;;175.23;107.35;;;;;;;-2.89;100.00;101037.59;5094703;28;20513;-44
2022/12/16 04:09:43;;;;;;;127.78;45.65;;;;;;;-2.73;100.00;101050.78;5095249;28;20039;-45
2022/12/16 04:25:54;;;;;;;192.43;114.65;;;;;;;-2.74;100.00;101059.09;5094313;28;20032;-43
2022/12/16 04:28:19;;;;;;;200.93;116.93;;;;;;;-2.74;100.00;101064.13;5095051;28;20427;-43
2022/12/16 04:30:44;;;;;;;208.55;122.18;;;;;;;-2.73;100.00;101070.97;5094351;28;20468;-43
